Terminal Aerodrome Forecast
Issued by NWS Shreveport, LA

Home | Current Version | Previous Version | Text Only | Print | Product List | Glossary On
Versions: 1 2 3 4 5 6 7 8 9 10 11 12 13 14 15
000
FTUS44 KSHV 180500 RRA
TAFLFK
TAF
KLFK 180541Z 1806/1906 06004KT P6SM OVC020
     FM181200 08004KT P6SM SCT009 OVC013
      TEMPO 1812/1815 4SM -DZ BR OVC007
     FM181500 08005KT 5SM BR OVC007
     FM181800 08005KT P6SM OVC010
     FM190100 05005KT 5SM BR OVC006=

USA.gov is the U.S. government's official web portal to all federal, state and local government web resources and services.